<?xml version="1.0" encoding="UTF-8" standalone="no" ?>
<gpx xmlns="http://www.topografix.com/GPX/1/1" xmlns:xsi="http://www.w3.org/2001/XMLSchema-instance" xsi:schemaLocation="http://www.topografix.com/GPX/1/1 http://www.topografix.com/GPX/1/1/gpx.xsd" version="1.1" creator="VisuGPX - https://www.visugpx.com">
  <metadata>
    <name>41km 150d+</name>
  </metadata>
  <trk>
    <name><![CDATA[Percurso Passeio Margaças 2013]]></name>
    <extensions>
      <line xmlns="http://www.topografix.com/GPX/gpx_style/0/2">
        <color>0000FF</color>
        <width>4</width>
      </line>
    </extensions>
    <trkseg>
      <trkpt lat="38.59791" lon="-9.14707">
        <ele>41.5</ele>
        <time>2013-04-07T22:42:28.000Z</time>
      </trkpt>
      <trkpt lat="38.59793" lon="-9.14723">
        <ele>41.1</ele>
        <time>2013-04-07T22:42:28.033Z</time>
      </trkpt>
      <trkpt lat="38.59785" lon="-9.14757">
        <ele>40.2</ele>
      </trkpt>
      <trkpt lat="38.59782" lon="-9.14772">
        <ele>39.7</ele>
      </trkpt>
      <trkpt lat="38.59776" lon="-9.14791">
        <ele>39.2</ele>
      </trkpt>
      <trkpt lat="38.59733" lon="-9.14887">
        <ele>38.8</ele>
      </trkpt>
      <trkpt lat="38.59718" lon="-9.14906">
        <ele>39.6</ele>
        <time>2013-04-07T22:42:28.115Z</time>
      </trkpt>
      <trkpt lat="38.59704" lon="-9.14896">
        <ele>40.2</ele>
      </trkpt>
      <trkpt lat="38.59551" lon="-9.14642">
        <ele>43.6</ele>
        <time>2013-04-07T22:42:28.282Z</time>
      </trkpt>
      <trkpt lat="38.59528" lon="-9.14549">
        <ele>45.5</ele>
        <time>2013-04-07T22:42:28.657Z</time>
      </trkpt>
      <trkpt lat="38.59527" lon="-9.14491">
        <ele>45.4</ele>
        <time>2013-04-07T22:42:29.056Z</time>
      </trkpt>
      <trkpt lat="38.5964" lon="-9.14287">
        <ele>47.8</ele>
        <time>2013-04-07T22:42:29.468Z</time>
      </trkpt>
      <trkpt lat="38.59738" lon="-9.14109">
        <ele>50.5</ele>
      </trkpt>
      <trkpt lat="38.59751" lon="-9.1406">
        <ele>49</ele>
        <time>2013-04-07T22:42:29.892Z</time>
      </trkpt>
      <trkpt lat="38.59746" lon="-9.14004">
        <ele>48.2</ele>
        <time>2013-04-07T22:42:30.330Z</time>
      </trkpt>
      <trkpt lat="38.59683" lon="-9.13864">
        <ele>48.5</ele>
        <time>2013-04-07T22:42:30.809Z</time>
      </trkpt>
      <trkpt lat="38.59295" lon="-9.13765">
        <ele>49.8</ele>
        <time>2013-04-07T22:42:31.415Z</time>
      </trkpt>
      <trkpt lat="38.59124" lon="-9.13701">
        <ele>46.8</ele>
        <time>2013-04-07T22:42:32.078Z</time>
      </trkpt>
      <trkpt lat="38.59006" lon="-9.13616">
        <ele>46.3</ele>
        <time>2013-04-07T22:42:32.785Z</time>
      </trkpt>
      <trkpt lat="38.58602" lon="-9.13391">
        <ele>55.7</ele>
        <time>2013-04-07T22:42:33.634Z</time>
      </trkpt>
      <trkpt lat="38.58451" lon="-9.13394">
        <ele>57.1</ele>
        <time>2013-04-07T22:42:34.531Z</time>
      </trkpt>
      <trkpt lat="38.58421" lon="-9.13426">
        <ele>57.7</ele>
        <time>2013-04-07T22:42:35.441Z</time>
      </trkpt>
      <trkpt lat="38.58348" lon="-9.1337">
        <ele>60</ele>
        <time>2013-04-07T22:42:36.378Z</time>
      </trkpt>
      <trkpt lat="38.58064" lon="-9.13344">
        <ele>68.8</ele>
        <time>2013-04-07T22:42:37.407Z</time>
      </trkpt>
      <trkpt lat="38.57926" lon="-9.13374">
        <ele>69.2</ele>
        <time>2013-04-07T22:42:38.481Z</time>
      </trkpt>
      <trkpt lat="38.57718" lon="-9.13468">
        <ele>69.2</ele>
        <time>2013-04-07T22:42:39.626Z</time>
      </trkpt>
      <trkpt lat="38.5749" lon="-9.13479">
        <ele>75.5</ele>
        <time>2013-04-07T22:42:40.844Z</time>
      </trkpt>
      <trkpt lat="38.57493" lon="-9.13601">
        <ele>72.1</ele>
        <time>2013-04-07T22:42:42.093Z</time>
      </trkpt>
      <trkpt lat="38.57566" lon="-9.14018">
        <ele>71</ele>
        <time>2013-04-07T22:42:43.450Z</time>
      </trkpt>
      <trkpt lat="38.57575" lon="-9.14173">
        <ele>69.8</ele>
        <time>2013-04-07T22:42:44.846Z</time>
      </trkpt>
      <trkpt lat="38.57573" lon="-9.14338">
        <ele>67.8</ele>
        <time>2013-04-07T22:42:46.284Z</time>
      </trkpt>
      <trkpt lat="38.57511" lon="-9.1447">
        <ele>66.6</ele>
        <time>2013-04-07T22:42:47.761Z</time>
      </trkpt>
      <trkpt lat="38.57562" lon="-9.14558">
        <ele>68.2</ele>
        <time>2013-04-07T22:42:49.265Z</time>
      </trkpt>
      <trkpt lat="38.57568" lon="-9.14598">
        <ele>66.2</ele>
        <time>2013-04-07T22:42:50.780Z</time>
      </trkpt>
      <trkpt lat="38.57491" lon="-9.15069">
        <ele>61.4</ele>
        <time>2013-04-07T22:42:52.416Z</time>
      </trkpt>
      <trkpt lat="38.57426" lon="-9.15089">
        <ele>60.7</ele>
        <time>2013-04-07T22:42:54.073Z</time>
      </trkpt>
      <trkpt lat="38.57244" lon="-9.15294">
        <ele>64.6</ele>
        <time>2013-04-07T22:42:55.809Z</time>
      </trkpt>
      <trkpt lat="38.57137" lon="-9.1537">
        <ele>66.8</ele>
        <time>2013-04-07T22:42:57.584Z</time>
      </trkpt>
      <trkpt lat="38.56823" lon="-9.15239">
        <ele>70</ele>
        <time>2013-04-07T22:42:59.465Z</time>
      </trkpt>
      <trkpt lat="38.56776" lon="-9.15234">
        <ele>71</ele>
        <time>2013-04-07T22:43:01.361Z</time>
      </trkpt>
      <trkpt lat="38.56545" lon="-9.1618">
        <ele>69.4</ele>
        <time>2013-04-07T22:43:03.508Z</time>
      </trkpt>
      <trkpt lat="38.56062" lon="-9.15923">
        <ele>68</ele>
        <time>2013-04-07T22:43:05.823Z</time>
      </trkpt>
      <trkpt lat="38.55806" lon="-9.16926">
        <ele>65</ele>
        <time>2013-04-07T22:43:08.404Z</time>
      </trkpt>
      <trkpt lat="38.55001" lon="-9.16861">
        <ele>67</ele>
        <time>2013-04-07T22:43:11.245Z</time>
      </trkpt>
      <trkpt lat="38.54922" lon="-9.16853">
        <ele>66.9</ele>
        <time>2013-04-07T22:43:14.112Z</time>
      </trkpt>
      <trkpt lat="38.54916" lon="-9.16839">
        <ele>66.7</ele>
        <time>2013-04-07T22:43:16.982Z</time>
      </trkpt>
      <trkpt lat="38.54144" lon="-9.13244">
        <ele>37.2</ele>
        <time>2013-04-07T22:43:20.794Z</time>
      </trkpt>
      <trkpt lat="38.55119" lon="-9.14281">
        <ele>52.2</ele>
        <time>2013-04-07T22:43:25.015Z</time>
      </trkpt>
      <trkpt lat="38.55402" lon="-9.14628">
        <ele>45.6</ele>
        <time>2013-04-07T22:43:29.362Z</time>
      </trkpt>
      <trkpt lat="38.56277" lon="-9.15004">
        <ele>60.5</ele>
        <time>2013-04-07T22:43:34.006Z</time>
      </trkpt>
      <trkpt lat="38.56437" lon="-9.14426">
        <ele>72.7</ele>
        <time>2013-04-07T22:43:38.805Z</time>
      </trkpt>
      <trkpt lat="38.56665" lon="-9.14342">
        <ele>77.7</ele>
        <time>2013-04-07T22:43:43.681Z</time>
      </trkpt>
      <trkpt lat="38.56762" lon="-9.14352">
        <ele>75.9</ele>
        <time>2013-04-07T22:43:48.588Z</time>
      </trkpt>
      <trkpt lat="38.56869" lon="-9.14405">
        <ele>78.7</ele>
        <time>2013-04-07T22:43:53.532Z</time>
      </trkpt>
      <trkpt lat="38.56975" lon="-9.14399">
        <ele>76.2</ele>
        <time>2013-04-07T22:43:58.510Z</time>
      </trkpt>
      <trkpt lat="38.57008" lon="-9.14278">
        <ele>73.5</ele>
        <time>2013-04-07T22:44:03.521Z</time>
      </trkpt>
      <trkpt lat="38.56902" lon="-9.14216">
        <ele>68.5</ele>
        <time>2013-04-07T22:44:08.569Z</time>
      </trkpt>
      <trkpt lat="38.56349" lon="-9.13978">
        <ele>70.1</ele>
        <time>2013-04-07T22:44:13.805Z</time>
      </trkpt>
      <trkpt lat="38.53994" lon="-9.13055">
        <ele>30.3</ele>
        <time>2013-04-07T22:44:19.834Z</time>
      </trkpt>
      <trkpt lat="38.53564" lon="-9.12702">
        <ele>28.7</ele>
        <time>2013-04-07T22:44:26.028Z</time>
      </trkpt>
      <trkpt lat="38.53749" lon="-9.12613">
        <ele>33.3</ele>
        <time>2013-04-07T22:44:32.285Z</time>
      </trkpt>
      <trkpt lat="38.53813" lon="-9.12549">
        <ele>36.1</ele>
        <time>2013-04-07T22:44:38.568Z</time>
      </trkpt>
      <trkpt lat="38.53856" lon="-9.12446">
        <ele>36.4</ele>
        <time>2013-04-07T22:44:44.881Z</time>
      </trkpt>
      <trkpt lat="38.53934" lon="-9.12341">
        <ele>39.2</ele>
        <time>2013-04-07T22:44:51.230Z</time>
      </trkpt>
      <trkpt lat="38.54003" lon="-9.12033">
        <ele>38.1</ele>
        <time>2013-04-07T22:44:57.660Z</time>
      </trkpt>
      <trkpt lat="38.54283" lon="-9.11912">
        <ele>30.6</ele>
        <time>2013-04-07T22:45:04.186Z</time>
      </trkpt>
      <trkpt lat="38.54304" lon="-9.11968">
        <ele>34.4</ele>
        <time>2013-04-07T22:45:10.728Z</time>
      </trkpt>
      <trkpt lat="38.5435" lon="-9.12002">
        <ele>37.1</ele>
        <time>2013-04-07T22:45:17.287Z</time>
      </trkpt>
      <trkpt lat="38.5438" lon="-9.11986">
        <ele>37.4</ele>
        <time>2013-04-07T22:45:23.856Z</time>
      </trkpt>
      <trkpt lat="38.54508" lon="-9.11992">
        <ele>44.5</ele>
        <time>2013-04-07T22:45:30.466Z</time>
      </trkpt>
      <trkpt lat="38.54611" lon="-9.12034">
        <ele>51.5</ele>
        <time>2013-04-07T22:45:37.111Z</time>
      </trkpt>
      <trkpt lat="38.54792" lon="-9.1206">
        <ele>57.5</ele>
        <time>2013-04-07T22:45:43.815Z</time>
      </trkpt>
      <trkpt lat="38.54875" lon="-9.12097">
        <ele>59.4</ele>
        <time>2013-04-07T22:45:50.547Z</time>
      </trkpt>
      <trkpt lat="38.54985" lon="-9.12611">
        <ele>53.6</ele>
        <time>2013-04-07T22:45:57.414Z</time>
      </trkpt>
      <trkpt lat="38.54975" lon="-9.12654">
        <ele>54.8</ele>
        <time>2013-04-07T22:46:04.292Z</time>
      </trkpt>
      <trkpt lat="38.55006" lon="-9.12705">
        <ele>56.5</ele>
        <time>2013-04-07T22:46:11.186Z</time>
      </trkpt>
      <trkpt lat="38.5554" lon="-9.12605">
        <ele>71.2</ele>
        <time>2013-04-07T22:46:18.254Z</time>
      </trkpt>
      <trkpt lat="38.55474" lon="-9.12958">
        <ele>68</ele>
        <time>2013-04-07T22:46:25.414Z</time>
      </trkpt>
      <trkpt lat="38.55423" lon="-9.13421">
        <ele>61.1</ele>
        <time>2013-04-07T22:46:32.692Z</time>
      </trkpt>
      <trkpt lat="38.55525" lon="-9.1336">
        <ele>62.5</ele>
        <time>2013-04-07T22:46:40.006Z</time>
      </trkpt>
      <trkpt lat="38.55655" lon="-9.13208">
        <ele>67.9</ele>
        <time>2013-04-07T22:46:47.377Z</time>
      </trkpt>
      <trkpt lat="38.55851" lon="-9.13104">
        <ele>66.9</ele>
        <time>2013-04-07T22:46:54.816Z</time>
      </trkpt>
      <trkpt lat="38.55935" lon="-9.13081">
        <ele>69</ele>
        <time>2013-04-07T22:47:02.283Z</time>
      </trkpt>
      <trkpt lat="38.56675" lon="-9.13313">
        <ele>71.9</ele>
        <time>2013-04-07T22:47:09.995Z</time>
      </trkpt>
      <trkpt lat="38.56739" lon="-9.1337">
        <ele>78</ele>
        <time>2013-04-07T22:47:17.732Z</time>
      </trkpt>
      <trkpt lat="38.56887" lon="-9.13424">
        <ele>75.5</ele>
        <time>2013-04-07T22:47:25.518Z</time>
      </trkpt>
      <trkpt lat="38.57002" lon="-9.13412">
        <ele>72</ele>
        <time>2013-04-07T22:47:33.341Z</time>
      </trkpt>
      <trkpt lat="38.57074" lon="-9.13483">
        <ele>72.6</ele>
        <time>2013-04-07T22:47:41.194Z</time>
      </trkpt>
      <trkpt lat="38.57187" lon="-9.13557">
        <ele>73.2</ele>
        <time>2013-04-07T22:47:49.088Z</time>
      </trkpt>
      <trkpt lat="38.57454" lon="-9.12446">
        <ele>74.3</ele>
        <time>2013-04-07T22:47:57.275Z</time>
      </trkpt>
      <trkpt lat="38.57507" lon="-9.12408">
        <ele>65.7</ele>
        <time>2013-04-07T22:48:05.481Z</time>
      </trkpt>
      <trkpt lat="38.57543" lon="-9.12449">
        <ele>62</ele>
        <time>2013-04-07T22:48:13.703Z</time>
      </trkpt>
      <trkpt lat="38.575" lon="-9.12981">
        <ele>65.5</ele>
        <time>2013-04-07T22:48:22.060Z</time>
      </trkpt>
      <trkpt lat="38.57485" lon="-9.13477">
        <ele>74.9</ele>
        <time>2013-04-07T22:48:30.543Z</time>
      </trkpt>
      <trkpt lat="38.57509" lon="-9.13481">
        <ele>77</ele>
        <time>2013-04-07T22:48:39.034Z</time>
      </trkpt>
      <trkpt lat="38.57519" lon="-9.13516">
        <ele>77</ele>
        <time>2013-04-07T22:48:47.534Z</time>
      </trkpt>
      <trkpt lat="38.57506" lon="-9.13618">
        <ele>70.5</ele>
        <time>2013-04-07T22:48:56.060Z</time>
      </trkpt>
      <trkpt lat="38.57521" lon="-9.13705">
        <ele>69.3</ele>
        <time>2013-04-07T22:49:04.609Z</time>
      </trkpt>
      <trkpt lat="38.58313" lon="-9.13951">
        <ele>60.6</ele>
        <time>2013-04-07T22:49:13.420Z</time>
      </trkpt>
      <trkpt lat="38.58334" lon="-9.14021">
        <ele>61.8</ele>
        <time>2013-04-07T22:49:22.250Z</time>
      </trkpt>
      <trkpt lat="38.58431" lon="-9.14118">
        <ele>60.4</ele>
        <time>2013-04-07T22:49:31.120Z</time>
      </trkpt>
      <trkpt lat="38.58446" lon="-9.14166">
        <ele>59.4</ele>
        <time>2013-04-07T22:49:40.003Z</time>
      </trkpt>
      <trkpt lat="38.58494" lon="-9.14215">
        <ele>56.3</ele>
        <time>2013-04-07T22:49:48.905Z</time>
      </trkpt>
      <trkpt lat="38.58519" lon="-9.14216">
        <ele>55.5</ele>
        <time>2013-04-07T22:49:57.815Z</time>
      </trkpt>
      <trkpt lat="38.58586" lon="-9.14294">
        <ele>55</ele>
        <time>2013-04-07T22:50:06.755Z</time>
      </trkpt>
      <trkpt lat="38.58682" lon="-9.14549">
        <ele>55.5</ele>
        <time>2013-04-07T22:50:15.766Z</time>
      </trkpt>
      <trkpt lat="38.58719" lon="-9.14592">
        <ele>53.7</ele>
        <time>2013-04-07T22:50:24.793Z</time>
      </trkpt>
      <trkpt lat="38.58828" lon="-9.14665">
        <ele>54</ele>
        <time>2013-04-07T22:50:33.860Z</time>
      </trkpt>
      <trkpt lat="38.58902" lon="-9.14745">
        <ele>52.8</ele>
        <time>2013-04-07T22:50:42.958Z</time>
      </trkpt>
      <trkpt lat="38.58939" lon="-9.14817">
        <ele>50</ele>
        <time>2013-04-07T22:50:52.078Z</time>
      </trkpt>
      <trkpt lat="38.58959" lon="-9.14932">
        <ele>51.6</ele>
        <time>2013-04-07T22:51:01.228Z</time>
      </trkpt>
      <trkpt lat="38.59001" lon="-9.14737">
        <ele>55.1</ele>
        <time>2013-04-07T22:51:10.429Z</time>
      </trkpt>
      <trkpt lat="38.59167" lon="-9.14599">
        <ele>50.4</ele>
        <time>2013-04-07T22:51:19.694Z</time>
      </trkpt>
      <trkpt lat="38.59181" lon="-9.14552">
        <ele>50.2</ele>
        <time>2013-04-07T22:51:28.971Z</time>
      </trkpt>
      <trkpt lat="38.59167" lon="-9.14489">
        <ele>51.2</ele>
        <time>2013-04-07T22:51:38.265Z</time>
      </trkpt>
      <trkpt lat="38.59091" lon="-9.14362">
        <ele>50.4</ele>
        <time>2013-04-07T22:51:47.599Z</time>
      </trkpt>
      <trkpt lat="38.58531" lon="-9.13594">
        <ele>53.8</ele>
        <time>2013-04-07T22:51:57.198Z</time>
      </trkpt>
      <trkpt lat="38.58451" lon="-9.13462">
        <ele>54.3</ele>
        <time>2013-04-07T22:52:06.839Z</time>
      </trkpt>
      <trkpt lat="38.58366" lon="-9.1338">
        <ele>59.8</ele>
        <time>2013-04-07T22:52:16.514Z</time>
      </trkpt>
      <trkpt lat="38.58232" lon="-9.13185">
        <ele>60.5</ele>
        <time>2013-04-07T22:52:26.255Z</time>
      </trkpt>
      <trkpt lat="38.5817" lon="-9.1306">
        <ele>62.5</ele>
        <time>2013-04-07T22:52:36.033Z</time>
      </trkpt>
      <trkpt lat="38.58117" lon="-9.12872">
        <ele>57.8</ele>
        <time>2013-04-07T22:52:45.862Z</time>
      </trkpt>
      <trkpt lat="38.5812" lon="-9.12826">
        <ele>59</ele>
        <time>2013-04-07T22:52:55.702Z</time>
      </trkpt>
      <trkpt lat="38.58451" lon="-9.12271">
        <ele>47</ele>
        <time>2013-04-07T22:53:05.718Z</time>
      </trkpt>
      <trkpt lat="38.58482" lon="-9.12266">
        <ele>46.7</ele>
        <time>2013-04-07T22:53:15.744Z</time>
      </trkpt>
      <trkpt lat="38.58611" lon="-9.12302">
        <ele>48.1</ele>
        <time>2013-04-07T22:53:25.813Z</time>
      </trkpt>
      <trkpt lat="38.58778" lon="-9.12143">
        <ele>44.8</ele>
        <time>2013-04-07T22:53:35.949Z</time>
      </trkpt>
      <trkpt lat="38.59026" lon="-9.11964">
        <ele>42.8</ele>
        <time>2013-04-07T22:53:46.176Z</time>
      </trkpt>
      <trkpt lat="38.59077" lon="-9.11875">
        <ele>37.4</ele>
        <time>2013-04-07T22:53:56.431Z</time>
      </trkpt>
      <trkpt lat="38.59163" lon="-9.11778">
        <ele>35.9</ele>
        <time>2013-04-07T22:54:06.723Z</time>
      </trkpt>
      <trkpt lat="38.59256" lon="-9.116">
        <ele>37</ele>
        <time>2013-04-07T22:54:17.069Z</time>
      </trkpt>
      <trkpt lat="38.59483" lon="-9.11425">
        <ele>36</ele>
        <time>2013-04-07T22:54:27.500Z</time>
      </trkpt>
      <trkpt lat="38.59548" lon="-9.11357">
        <ele>35.6</ele>
        <time>2013-04-07T22:54:37.959Z</time>
      </trkpt>
      <trkpt lat="38.59713" lon="-9.11238">
        <ele>36.6</ele>
        <time>2013-04-07T22:54:48.479Z</time>
      </trkpt>
      <trkpt lat="38.59997" lon="-9.11152">
        <ele>33.1</ele>
        <time>2013-04-07T22:54:59.093Z</time>
      </trkpt>
      <trkpt lat="38.60029" lon="-9.11165">
        <ele>32</ele>
        <time>2013-04-07T22:55:09.718Z</time>
      </trkpt>
      <trkpt lat="38.60168" lon="-9.11493">
        <ele>19.1</ele>
        <time>2013-04-07T22:55:20.437Z</time>
      </trkpt>
      <trkpt lat="38.60253" lon="-9.11431">
        <ele>14</ele>
        <time>2013-04-07T22:55:31.187Z</time>
      </trkpt>
      <trkpt lat="38.60284" lon="-9.11431">
        <ele>14.1</ele>
        <time>2013-04-07T22:55:41.947Z</time>
      </trkpt>
      <trkpt lat="38.60288" lon="-9.11447">
        <ele>15.5</ele>
        <time>2013-04-07T22:55:52.712Z</time>
      </trkpt>
      <trkpt lat="38.60302" lon="-9.11936">
        <ele>35.3</ele>
        <time>2013-04-07T22:56:03.600Z</time>
      </trkpt>
      <trkpt lat="38.60391" lon="-9.12095">
        <ele>45.2</ele>
        <time>2013-04-07T22:56:14.537Z</time>
      </trkpt>
      <trkpt lat="38.60339" lon="-9.12251">
        <ele>40.4</ele>
        <time>2013-04-07T22:56:25.517Z</time>
      </trkpt>
      <trkpt lat="38.60345" lon="-9.12294">
        <ele>42</ele>
        <time>2013-04-07T22:56:36.508Z</time>
      </trkpt>
      <trkpt lat="38.60376" lon="-9.12343">
        <ele>43.4</ele>
        <time>2013-04-07T22:56:47.515Z</time>
      </trkpt>
      <trkpt lat="38.60348" lon="-9.12459">
        <ele>40.1</ele>
        <time>2013-04-07T22:56:58.553Z</time>
      </trkpt>
      <trkpt lat="38.60344" lon="-9.1268">
        <ele>36.4</ele>
        <time>2013-04-07T22:57:09.647Z</time>
      </trkpt>
      <trkpt lat="38.60191" lon="-9.1281">
        <ele>35.3</ele>
        <time>2013-04-07T22:57:20.800Z</time>
      </trkpt>
      <trkpt lat="38.60174" lon="-9.12857">
        <ele>39.2</ele>
        <time>2013-04-07T22:57:31.966Z</time>
      </trkpt>
      <trkpt lat="38.60147" lon="-9.1285">
        <ele>42.2</ele>
        <time>2013-04-07T22:57:43.141Z</time>
      </trkpt>
      <trkpt lat="38.60095" lon="-9.12898">
        <ele>41</ele>
        <time>2013-04-07T22:57:54.336Z</time>
      </trkpt>
      <trkpt lat="38.60016" lon="-9.12996">
        <ele>39.8</ele>
        <time>2013-04-07T22:58:05.567Z</time>
      </trkpt>
      <trkpt lat="38.59893" lon="-9.13078">
        <ele>39.4</ele>
        <time>2013-04-07T22:58:16.842Z</time>
      </trkpt>
      <trkpt lat="38.59645" lon="-9.1313">
        <ele>41.9</ele>
        <time>2013-04-07T22:58:28.198Z</time>
      </trkpt>
      <trkpt lat="38.59676" lon="-9.13306">
        <ele>49.4</ele>
        <time>2013-04-07T22:58:39.600Z</time>
      </trkpt>
      <trkpt lat="38.59741" lon="-9.13333">
        <ele>48.9</ele>
        <time>2013-04-07T22:58:51.024Z</time>
      </trkpt>
      <trkpt lat="38.5978" lon="-9.13372">
        <ele>53.2</ele>
        <time>2013-04-07T22:59:02.464Z</time>
      </trkpt>
      <trkpt lat="38.59859" lon="-9.13495">
        <ele>50.7</ele>
        <time>2013-04-07T22:59:13.944Z</time>
      </trkpt>
      <trkpt lat="38.59851" lon="-9.1358">
        <ele>51.7</ele>
        <time>2013-04-07T22:59:25.445Z</time>
      </trkpt>
      <trkpt lat="38.59677" lon="-9.13863">
        <ele>48.6</ele>
        <time>2013-04-07T22:59:37.037Z</time>
      </trkpt>
      <trkpt lat="38.59748" lon="-9.14002">
        <ele>52</ele>
        <time>2013-04-07T22:59:48.661Z</time>
      </trkpt>
      <trkpt lat="38.59774" lon="-9.13993">
        <ele>50.7</ele>
        <time>2013-04-07T23:00:00.316Z</time>
      </trkpt>
      <trkpt lat="38.59802" lon="-9.14011">
        <ele>49.5</ele>
        <time>2013-04-07T23:00:11.985Z</time>
      </trkpt>
      <trkpt lat="38.59815" lon="-9.14034">
        <ele>49</ele>
        <time>2013-04-07T23:00:23.673Z</time>
      </trkpt>
      <trkpt lat="38.59851" lon="-9.14034">
        <ele>47.9</ele>
        <time>2013-04-07T23:00:35.387Z</time>
      </trkpt>
      <trkpt lat="38.59961" lon="-9.13981">
        <ele>45.7</ele>
        <time>2013-04-07T23:00:47.129Z</time>
      </trkpt>
      <trkpt lat="38.6002" lon="-9.14139">
        <ele>42.7</ele>
        <time>2013-04-07T23:00:58.906Z</time>
      </trkpt>
      <trkpt lat="38.601" lon="-9.14179">
        <ele>43.3</ele>
        <time>2013-04-07T23:01:10.695Z</time>
      </trkpt>
      <trkpt lat="38.60158" lon="-9.14254">
        <ele>43</ele>
      </trkpt>
      <trkpt lat="38.60277" lon="-9.14317">
        <ele>40.9</ele>
        <time>2013-04-07T23:01:22.535Z</time>
      </trkpt>
      <trkpt lat="38.60269" lon="-9.14357">
        <ele>41</ele>
        <time>2013-04-07T23:01:34.408Z</time>
      </trkpt>
      <trkpt lat="38.60258" lon="-9.14387">
        <ele>41.2</ele>
      </trkpt>
      <trkpt lat="38.60103" lon="-9.14373">
        <ele>42.1</ele>
      </trkpt>
      <trkpt lat="38.60055" lon="-9.14375">
        <ele>42.2</ele>
        <time>2013-04-07T23:01:46.302Z</time>
      </trkpt>
      <trkpt lat="38.60002" lon="-9.14384">
        <ele>42.6</ele>
        <time>2013-04-07T23:01:58.223Z</time>
      </trkpt>
      <trkpt lat="38.59867" lon="-9.14519">
        <ele>44.6</ele>
      </trkpt>
      <trkpt lat="38.59801" lon="-9.14695">
        <ele>41.9</ele>
        <time>2013-04-07T23:02:10.180Z</time>
      </trkpt>
    </trkseg>
  </trk>
</gpx>